createdAt,value
2018-02-22T00:01:52.939Z,24.47
2018-02-22T00:04:22.070Z,28.13
2018-02-22T00:06:52.105Z,26.13
2018-02-22T00:09:22.021Z,24.70
2018-02-22T00:11:51.170Z,26.67
2018-02-22T00:14:20.290Z,26.43
2018-02-22T00:16:50.150Z,26.60
2018-02-22T00:19:19.268Z,25.07
2018-02-22T00:21:48.366Z,25.57
2018-02-22T00:24:17.454Z,25.20
2018-02-22T00:26:46.579Z,24.50
2018-02-22T00:29:15.689Z,24.73
2018-02-22T00:31:44.808Z,26.00
2018-02-22T00:34:13.898Z,25.97
2018-02-22T00:36:43.024Z,24.77
2018-02-22T00:39:12.112Z,25.83
2018-02-22T00:41:41.222Z,25.73
2018-02-22T00:44:10.334Z,25.87
2018-02-22T00:46:39.453Z,26.07
2018-02-22T00:49:08.540Z,28.07
2018-02-22T00:51:37.643Z,26.33
2018-02-22T00:54:06.740Z,24.90
2018-02-22T00:56:35.869Z,26.07
2018-02-22T00:59:05.732Z,26.60
2018-02-22T01:01:34.828Z,27.57
2018-02-22T01:04:03.954Z,25.90
2018-02-22T01:06:33.846Z,25.10
2018-02-22T01:09:02.953Z,26.40
2018-02-22T01:11:32.046Z,25.43
2018-02-22T01:14:01.158Z,27.40
2018-02-22T01:16:31.386Z,26.07
2018-02-22T01:19:01.250Z,25.43
2018-02-22T01:21:30.369Z,23.67
2018-02-22T01:23:59.454Z,25.33
2018-02-22T01:26:28.585Z,24.30
2018-02-22T01:28:58.437Z,23.70
2018-02-22T01:31:28.694Z,24.27
2018-02-22T01:33:57.783Z,25.60
2018-02-22T01:36:26.885Z,24.40
2018-02-22T01:38:55.984Z,25.87
2018-02-22T01:41:25.078Z,23.47
2018-02-22T01:43:54.196Z,24.80
2018-02-22T01:46:24.090Z,24.37
2018-02-22T01:48:53.173Z,24.57
2018-02-22T01:51:22.302Z,23.93
2018-02-22T01:53:52.184Z,24.37
2018-02-22T01:56:21.290Z,23.17
2018-02-22T01:58:50.406Z,23.20
2018-02-22T02:01:19.503Z,22.97
2018-02-22T02:03:48.605Z,23.10
2018-02-22T02:06:18.462Z,23.20
2018-02-22T02:08:47.607Z,23.33
2018-02-22T02:11:16.695Z,24.53
2018-02-22T02:13:45.823Z,22.90
2018-02-22T02:16:16.281Z,24.07
2018-02-22T02:18:45.386Z,24.00
2018-02-22T02:21:14.501Z,23.43
2018-02-22T02:23:43.601Z,23.17
2018-02-22T02:26:12.722Z,23.87
2018-02-22T02:28:41.818Z,22.70
2018-02-22T02:31:11.698Z,23.90
2018-02-22T02:33:40.796Z,23.77
2018-02-22T02:36:10.684Z,24.37
2018-02-22T02:38:39.771Z,21.10
2018-02-22T02:41:08.898Z,22.27
2018-02-22T02:43:38.018Z,22.87
2018-02-22T02:46:07.118Z,21.23
2018-02-22T02:48:37.282Z,22.87
2018-02-22T02:51:06.387Z,21.27
2018-02-22T02:53:36.339Z,20.57
2018-02-22T02:56:05.454Z,21.63
2018-02-22T02:58:35.297Z,22.37
2018-02-22T03:01:04.404Z,21.30
2018-02-22T03:03:33.522Z,22.37
2018-02-22T03:06:03.420Z,21.67
2018-02-22T03:08:32.566Z,19.00
2018-02-22T03:11:01.673Z,19.50
2018-02-22T03:13:31.556Z,21.93
2018-02-22T03:16:00.680Z,21.00
2018-02-22T03:18:30.549Z,20.53
2018-02-22T03:21:00.458Z,18.63
2018-02-22T03:23:29.584Z,20.17
2018-02-22T03:25:58.674Z,22.37
2018-02-22T03:28:27.797Z,21.63
2018-02-22T03:30:57.664Z,21.10
2018-02-22T03:33:26.803Z,21.83
2018-02-22T03:35:56.682Z,20.90
2018-02-22T03:38:26.543Z,18.90
2018-02-22T03:40:56.402Z,20.23
2018-02-22T03:43:26.272Z,19.83
2018-02-22T03:45:56.148Z,20.10
2018-02-22T03:48:25.233Z,21.40
2018-02-22T03:50:54.345Z,20.57
2018-02-22T03:53:24.954Z,20.77
2018-02-22T03:55:54.069Z,20.70
2018-02-22T03:58:23.165Z,20.93
2018-02-22T04:00:52.286Z,21.17
2018-02-22T04:03:22.150Z,19.13
2018-02-22T04:05:51.258Z,18.80
2018-02-22T04:08:20.376Z,19.10
2018-02-22T04:10:49.459Z,19.10
2018-02-22T04:13:18.596Z,18.90
2018-02-22T04:15:48.445Z,19.47
2018-02-22T04:18:17.552Z,19.30
2018-02-22T04:20:46.657Z,18.40
2018-02-22T04:23:15.731Z,18.27
2018-02-22T04:25:44.834Z,19.90
2018-02-22T04:28:13.930Z,19.13
2018-02-22T04:30:43.076Z,20.40
2018-02-22T04:33:12.947Z,19.43
2018-02-22T04:35:42.033Z,18.23
2018-02-22T04:38:11.155Z,20.63
2018-02-22T04:40:40.257Z,19.60
2018-02-22T04:43:09.354Z,18.33
2018-02-22T04:45:38.484Z,19.53
2018-02-22T04:48:08.358Z,20.30
2018-02-22T04:50:38.957Z,22.47
2018-02-22T04:53:08.063Z,18.80
2018-02-22T04:55:37.157Z,19.43
2018-02-22T04:58:06.278Z,20.07
2018-02-22T05:00:36.418Z,19.33
2018-02-22T05:03:05.499Z,18.60
2018-02-22T05:05:34.623Z,20.60
2018-02-22T05:08:04.491Z,20.70
2018-02-22T05:10:33.640Z,18.70
2018-02-22T05:13:03.489Z,21.73
2018-02-22T05:15:32.605Z,22.50
2018-02-22T05:18:01.720Z,21.70
2018-02-22T05:20:30.831Z,19.67
2018-02-22T05:23:00.698Z,20.20
2018-02-22T05:25:29.806Z,19.40
2018-02-22T05:27:58.929Z,20.13
2018-02-22T05:30:28.034Z,19.90
2018-02-22T05:32:57.909Z,19.43
2018-02-22T05:35:27.038Z,20.90
2018-02-22T05:37:56.912Z,22.40
2018-02-22T05:40:26.023Z,23.40
2018-02-22T05:42:55.135Z,20.90
2018-02-22T05:45:24.251Z,20.80
2018-02-22T05:47:54.131Z,20.80
2018-02-22T05:50:23.222Z,23.30
2018-02-22T05:52:52.338Z,20.53
2018-02-22T05:55:22.224Z,22.97
2018-02-22T05:57:51.363Z,20.47
2018-02-22T06:00:21.237Z,22.33
2018-02-22T06:02:50.326Z,20.40
2018-02-22T06:05:19.435Z,21.53
2018-02-22T06:07:48.592Z,20.20
2018-02-22T06:10:18.412Z,21.07
2018-02-22T06:12:47.523Z,20.60
2018-02-22T06:15:16.601Z,22.17
2018-02-22T06:17:45.738Z,20.10
2018-02-22T06:20:14.843Z,19.10
2018-02-22T06:22:43.952Z,21.93
2018-02-22T06:25:13.828Z,22.40
2018-02-22T06:27:42.939Z,20.83
2018-02-22T06:30:12.059Z,19.40
2018-02-22T06:32:41.945Z,21.70
2018-02-22T06:35:11.109Z,22.10
2018-02-22T06:37:40.247Z,22.10
2018-02-22T06:40:09.348Z,20.77
2018-02-22T06:42:38.469Z,22.90
2018-02-22T06:45:08.339Z,20.80
2018-02-22T06:47:37.462Z,21.83
2018-02-22T06:50:07.347Z,21.23
2018-02-22T06:52:36.435Z,21.03
2018-02-22T06:55:05.548Z,20.93
2018-02-22T06:57:34.635Z,23.03
2018-02-22T07:00:03.771Z,20.97
2018-02-22T07:02:32.877Z,23.33
2018-02-22T07:05:02.759Z,23.17
2018-02-22T07:07:31.888Z,21.60
2018-02-22T07:10:01.789Z,20.83
2018-02-22T07:12:30.904Z,22.23
2018-02-22T07:15:00.775Z,21.53
2018-02-22T07:17:29.882Z,21.00
2018-02-22T07:19:59.018Z,22.53
2018-02-22T07:22:28.136Z,23.03
2018-02-22T07:24:57.235Z,21.80
2018-02-22T07:27:26.397Z,21.53
2018-02-22T07:29:56.258Z,23.63
2018-02-22T07:32:25.360Z,23.73
2018-02-22T07:34:54.477Z,24.33
2018-02-22T07:37:23.602Z,24.10
2018-02-22T07:39:53.466Z,23.87
2018-02-22T07:42:22.585Z,23.63
2018-02-22T07:44:51.681Z,21.67
2018-02-22T07:47:21.072Z,21.43
2018-02-22T07:49:50.161Z,22.10
2018-02-22T07:52:19.264Z,21.10
2018-02-22T07:54:48.392Z,23.67
2018-02-22T07:57:19.030Z,23.57
2018-02-22T07:59:48.881Z,21.87
2018-02-22T08:02:17.991Z,22.90
2018-02-22T08:04:47.079Z,21.40
2018-02-22T08:07:16.208Z,21.87
2018-02-22T08:09:45.325Z,21.90
2018-02-22T08:12:15.198Z,21.63
2018-02-22T08:14:44.302Z,23.67
2018-02-22T08:17:13.428Z,22.97
2018-02-22T08:19:42.531Z,23.17
2018-02-22T08:22:12.416Z,20.90
2018-02-22T08:24:41.504Z,21.77
2018-02-22T08:27:10.634Z,21.90
2018-02-22T08:29:40.508Z,23.17
2018-02-22T08:32:09.693Z,22.37
2018-02-22T08:34:38.819Z,23.00
2018-02-22T08:37:07.932Z,21.90
2018-02-22T08:39:37.022Z,23.50
2018-02-22T08:42:06.910Z,21.23
2018-02-22T08:44:36.011Z,21.53
2018-02-22T08:47:05.132Z,22.30
2018-02-22T11:18:51.494Z,10.30
2018-02-22T11:21:39.370Z,10.50
2018-02-22T11:24:13.843Z,9.67
2018-02-22T11:26:57.296Z,8.70
2018-02-22T11:29:38.635Z,9.40
2018-02-22T11:32:16.734Z,9.40
2018-02-22T11:34:53.418Z,9.20
2018-02-22T11:37:30.351Z,8.93
2018-02-22T11:40:06.333Z,8.50
2018-02-22T11:42:43.211Z,8.63
2018-02-22T11:45:19.299Z,8.70
2018-02-22T11:47:53.855Z,8.47
2018-02-22T11:50:29.532Z,8.67
2018-02-22T11:53:03.997Z,9.40
2018-02-22T11:55:39.566Z,9.60
2018-02-22T11:58:14.541Z,8.33
2018-02-22T12:00:49.715Z,9.20
2018-02-22T12:03:25.392Z,7.90
2018-02-22T12:06:01.704Z,7.70
2018-02-22T12:08:36.805Z,7.57
2018-02-22T12:11:12.342Z,9.93
2018-02-22T12:13:47.205Z,7.70
2018-02-22T12:16:22.931Z,8.80
2018-02-22T12:21:38.518Z,8.23
2018-02-22T12:24:14.597Z,7.43
2018-02-22T12:26:45.624Z,7.57
2018-02-22T12:29:14.889Z,8.03
2018-02-22T12:31:44.163Z,7.80
2018-02-22T12:34:13.227Z,7.17
2018-02-22T12:36:42.729Z,7.33
2018-02-22T12:39:11.895Z,8.00
2018-02-22T12:41:41.052Z,7.53
2018-02-22T12:44:10.294Z,6.60
2018-02-22T12:46:39.524Z,7.67
2018-02-22T12:49:08.987Z,9.53
2018-02-22T12:51:38.892Z,7.47
2018-02-22T12:54:08.441Z,8.03
2018-02-22T12:56:37.789Z,6.50
2018-02-22T12:59:06.837Z,7.07
2018-02-22T13:01:36.227Z,7.13
2018-02-22T13:04:05.399Z,7.80
2018-02-22T13:06:35.367Z,7.13
2018-02-22T13:09:04.485Z,7.10
2018-02-22T13:11:33.554Z,8.07
2018-02-22T13:14:02.644Z,7.30
2018-02-22T13:16:31.714Z,6.20
2018-02-22T13:19:00.789Z,5.60
2018-02-22T13:21:30.844Z,7.10
2018-02-22T13:23:59.937Z,5.93
2018-02-22T13:26:29.524Z,6.00
2018-02-22T13:28:59.492Z,6.20
2018-02-22T13:31:28.901Z,6.17
2018-02-22T13:34:16.181Z,6.70
2018-02-22T13:36:45.357Z,6.90
2018-02-22T13:39:15.307Z,7.20
2018-02-22T13:41:44.743Z,7.67
2018-02-22T13:44:31.755Z,6.60
2018-02-22T13:47:01.025Z,6.33
2018-02-22T13:49:47.810Z,6.57
2018-02-22T13:52:17.711Z,6.33
2018-02-22T13:54:46.989Z,6.07
2018-02-22T13:57:20.267Z,7.20
2018-02-22T13:59:49.378Z,5.53
2018-02-22T14:02:33.374Z,6.10
2018-02-22T14:05:02.743Z,6.10
2018-02-22T14:07:32.124Z,6.50
2018-02-22T14:10:01.207Z,5.90
2018-02-22T14:12:30.437Z,5.80
2018-02-22T14:14:59.523Z,6.43
2018-02-22T14:17:28.630Z,6.07
2018-02-22T14:19:57.953Z,6.47
2018-02-22T14:22:28.694Z,6.40
2018-02-22T14:24:57.818Z,6.80
2018-02-22T14:27:26.973Z,5.90
2018-02-22T14:29:56.159Z,6.07
2018-02-22T14:32:25.289Z,6.27
2018-02-22T14:34:55.403Z,6.83
2018-02-22T14:37:24.563Z,6.13
2018-02-22T14:39:53.682Z,6.10
2018-02-22T14:42:23.864Z,7.50
2018-02-22T14:44:54.361Z,6.73
2018-02-22T14:47:23.789Z,6.73
2018-02-22T14:49:53.912Z,6.60
2018-02-22T14:52:27.889Z,6.73
2018-02-22T14:54:59.331Z,6.33
2018-02-22T14:57:31.441Z,6.50
2018-02-22T15:00:00.797Z,6.20
2018-02-22T15:02:30.476Z,7.70
2018-02-22T15:05:00.511Z,6.60
2018-02-22T15:07:30.371Z,6.37
2018-02-22T15:09:59.705Z,6.10
2018-02-22T15:12:28.832Z,7.57
2018-02-22T15:15:00.316Z,6.17
2018-02-22T15:17:29.622Z,6.13
2018-02-22T15:19:59.095Z,6.73
2018-02-22T15:22:28.244Z,6.60
2018-02-22T15:24:57.442Z,5.73
2018-02-22T15:27:26.549Z,6.20
2018-02-22T15:29:57.221Z,6.20
2018-02-22T15:32:35.020Z,5.80
2018-02-22T15:35:04.416Z,5.97
2018-02-22T15:37:34.524Z,5.93
2018-02-22T15:40:04.299Z,6.47
2018-02-22T15:42:33.606Z,6.00
2018-02-22T15:45:03.053Z,6.90
2018-02-22T15:47:36.972Z,6.23
2018-02-22T15:50:09.303Z,7.80
2018-02-22T15:52:38.864Z,8.37
2018-02-22T15:55:07.990Z,10.70
2018-02-22T15:57:38.888Z,10.50
2018-02-22T16:00:08.219Z,6.83
2018-02-22T16:02:37.517Z,6.13
2018-02-22T16:05:06.895Z,7.00
2018-02-22T16:07:36.253Z,8.40
2018-02-22T16:10:05.343Z,6.73
2018-02-22T16:12:34.610Z,6.73
2018-02-22T16:15:03.971Z,7.90
2018-02-22T16:17:34.904Z,7.67
2018-02-22T16:20:05.802Z,8.17
2018-02-22T16:22:34.933Z,7.50
2018-02-22T16:25:04.192Z,8.30
2018-02-22T16:27:33.698Z,7.67
2018-02-22T16:30:03.206Z,8.80
2018-02-22T16:32:32.400Z,8.20
2018-02-22T16:35:02.037Z,7.57
2018-02-22T16:37:31.105Z,10.87
2018-02-22T16:40:05.154Z,8.67
2018-02-22T16:42:35.381Z,9.13
2018-02-22T16:47:49.796Z,10.67
2018-02-22T16:50:20.992Z,13.03
2018-02-22T16:52:51.866Z,9.10
2018-02-22T16:55:24.294Z,9.07
2018-02-22T16:57:55.694Z,8.60
2018-02-22T17:00:36.574Z,9.07
2018-02-22T17:03:08.135Z,9.30
2018-02-22T17:05:40.524Z,10.80
2018-02-22T17:08:11.733Z,9.07
2018-02-22T17:10:49.528Z,9.77
2018-02-22T17:13:21.097Z,9.90
2018-02-22T17:15:52.067Z,10.13
2018-02-22T17:18:22.440Z,12.43
2018-02-22T17:20:54.521Z,11.40
2018-02-22T17:23:25.619Z,11.13
2018-02-22T17:26:03.442Z,11.60
2018-02-22T17:28:40.640Z,10.27
2018-02-22T17:31:16.136Z,9.83
2018-02-22T17:33:45.427Z,9.87
2018-02-22T17:49:46.228Z,9.77
2018-02-22T17:52:18.497Z,10.00
2018-02-22T17:54:50.252Z,11.10
2018-02-22T17:57:21.232Z,10.80
2018-02-22T17:59:53.990Z,11.10
2018-02-22T18:02:25.587Z,12.03
2018-02-22T18:04:54.633Z,11.87
2018-02-22T18:07:23.772Z,15.90
2018-02-22T18:09:54.041Z,14.73
2018-02-22T18:12:23.874Z,15.00
2018-02-22T18:14:53.384Z,14.33
2018-02-22T18:17:22.649Z,14.00
2018-02-22T18:19:52.493Z,14.77
2018-02-22T18:22:21.620Z,13.03
2018-02-22T18:24:53.865Z,11.27
2018-02-22T18:27:23.433Z,11.03
2018-02-22T18:29:52.594Z,12.03
2018-02-22T18:32:21.935Z,13.00
2018-02-22T18:34:51.504Z,14.60
2018-02-22T18:37:26.203Z,12.97
2018-02-22T18:39:55.332Z,14.47
2018-02-22T18:42:24.576Z,13.80
2018-02-22T18:44:59.186Z,11.90
2018-02-22T18:47:28.785Z,10.60
2018-02-22T18:49:58.669Z,12.40
2018-02-22T18:52:28.505Z,12.67
2018-02-22T18:54:57.622Z,11.80
2018-02-22T18:57:27.500Z,11.10
2018-02-22T18:59:57.638Z,10.63
2018-02-22T19:02:27.100Z,12.27
2018-02-22T19:04:57.973Z,11.23
2018-02-22T19:07:27.098Z,11.97
2018-02-22T19:09:56.218Z,10.83
2018-02-22T19:12:25.346Z,12.33
2018-02-22T19:14:54.451Z,11.60
2018-02-22T19:17:23.588Z,13.70
2018-02-22T19:19:52.712Z,17.53
2018-02-22T19:22:24.318Z,15.57
2018-02-22T19:24:54.204Z,12.87
2018-02-22T19:27:23.335Z,12.03
2018-02-22T19:29:53.224Z,11.73
2018-02-22T19:32:22.382Z,11.20
2018-02-22T19:34:51.509Z,11.40
2018-02-22T19:37:20.660Z,13.50
2018-02-22T19:39:50.548Z,12.43
2018-02-22T19:42:20.474Z,12.23
2018-02-22T19:44:50.367Z,12.43
2018-02-22T19:47:19.493Z,11.40
2018-02-22T19:49:48.607Z,11.77
2018-02-22T19:52:17.764Z,13.97
2018-02-22T19:54:47.662Z,14.77
2018-02-22T19:57:16.752Z,13.23
2018-02-22T19:59:49.626Z,13.10
2018-02-22T20:02:18.719Z,12.77
2018-02-22T20:04:47.846Z,12.73
2018-02-22T20:07:16.979Z,11.77
2018-02-22T20:09:46.104Z,12.67
2018-02-22T20:12:15.230Z,13.13
2018-02-22T20:14:44.349Z,13.17
2018-02-22T20:17:13.500Z,13.00
2018-02-22T20:19:42.658Z,13.90
2018-02-22T20:22:11.798Z,12.00
2018-02-22T20:24:40.899Z,12.53
2018-02-22T20:27:10.016Z,12.57
2018-02-22T20:29:39.924Z,12.40
2018-02-22T20:32:09.066Z,12.27
2018-02-22T20:34:38.210Z,12.07
2018-02-22T20:37:07.324Z,12.73
2018-02-22T20:39:37.219Z,10.93
2018-02-22T20:42:06.316Z,13.10
2018-02-22T20:44:35.468Z,12.67
2018-02-22T20:47:04.589Z,12.67
2018-02-22T20:49:33.763Z,12.40
2018-02-22T20:52:02.876Z,12.10
2018-02-22T20:54:31.991Z,12.57
2018-02-22T20:57:01.093Z,13.30
2018-02-22T20:59:30.197Z,13.43
2018-02-22T21:01:59.321Z,11.67
2018-02-22T21:04:28.431Z,12.13
2018-02-22T21:06:57.569Z,12.93
2018-02-22T21:09:26.664Z,10.30
2018-02-22T21:11:55.818Z,10.73
2018-02-22T21:14:24.925Z,12.83
2018-02-22T21:16:54.831Z,12.13
2018-02-22T21:19:23.967Z,11.40
2018-02-22T21:21:53.095Z,12.60
2018-02-22T21:24:22.977Z,11.50
2018-02-22T21:26:52.093Z,12.10
2018-02-22T21:29:21.204Z,13.40
2018-02-22T21:31:51.113Z,11.83
2018-02-22T21:34:21.000Z,11.30
2018-02-22T21:36:50.121Z,12.60
2018-02-22T21:39:19.231Z,11.43
2018-02-22T21:41:48.362Z,11.53
2018-02-22T21:44:17.472Z,12.37
2018-02-22T21:46:46.602Z,13.20
2018-02-22T21:49:16.502Z,13.47
2018-02-22T21:51:47.319Z,11.43
2018-02-22T21:54:16.419Z,12.40
2018-02-22T21:56:45.556Z,12.10
2018-02-22T21:59:15.414Z,10.30
2018-02-22T22:01:45.290Z,11.53
2018-02-22T22:04:14.406Z,9.97
2018-02-22T22:06:43.505Z,9.73
2018-02-22T22:09:12.640Z,10.40
2018-02-22T22:11:42.529Z,10.60
2018-02-22T22:14:11.665Z,9.80
2018-02-22T22:16:40.772Z,10.87
2018-02-22T22:19:10.452Z,9.20
2018-02-22T22:21:39.554Z,9.63
2018-02-22T22:24:08.680Z,10.20
2018-02-22T22:26:37.763Z,10.60
2018-02-22T22:29:08.059Z,10.20
2018-02-22T22:31:37.122Z,10.70
2018-02-22T22:34:06.854Z,10.03
2018-02-22T22:36:35.937Z,8.83
2018-02-22T22:39:05.223Z,10.83
2018-02-22T22:41:34.315Z,10.37
2018-02-22T22:44:03.460Z,10.83
2018-02-22T22:46:32.514Z,11.40
2018-02-22T22:49:01.623Z,11.33
2018-02-22T22:51:30.731Z,10.93
2018-02-22T22:54:00.077Z,10.17
2018-02-22T22:56:29.272Z,10.57
2018-02-22T22:58:58.442Z,10.50
2018-02-22T23:01:27.549Z,10.73
2018-02-22T23:03:56.716Z,10.70
2018-02-22T23:06:25.877Z,10.67
2018-02-22T23:08:55.814Z,10.77
2018-02-22T23:11:24.980Z,10.10
2018-02-22T23:13:54.105Z,11.17
2018-02-22T23:16:23.298Z,8.60
2018-02-22T23:18:53.296Z,10.63
2018-02-22T23:21:22.382Z,8.63
2018-02-22T23:23:52.303Z,10.13
2018-02-22T23:26:21.389Z,9.40
2018-02-22T23:28:50.488Z,10.13
2018-02-22T23:31:19.598Z,9.83
2018-02-22T23:33:49.481Z,9.13
2018-02-22T23:36:18.576Z,9.70
2018-02-22T23:38:55.931Z,10.13
2018-02-22T23:54:50.523Z,10.07
2018-02-22T23:57:19.639Z,10.50
2018-02-22T23:59:48.727Z,9.17
